Αρχική σελίδα
METAR-TAF:

METAR-TAF

Αεροδρόμια :

Χαρτούμ, Σουδάν

γεωγραφικό πλάτος: 15-36N, γεωγραφικό μήκος: 032-33E, υψόμετρο: 382 μ

Παρών καιρός

Η αναφορά έγινε 38 λεπτά πριν, στις 21:00 UTC
Άνεμος 18 kt από Ν
Θερμοκρασία 32°C
Υγρασία 43%
Πίεση 1009 hPa
Ορατότητα 10 χλμ και άνω
Δεν υπάρχουν νέφη με βάση κάτω από τα 1500 μ. και δεν υπάρχουν νέφη σωρειτομελανίτες.

METAR: HSSS 232100Z 19018KT CAVOK 32/18 Q1009 NOSIG

Χρόνος: 00:38 (21:38 UTC)

Πρόγνωση Καιρού

Η αναφορά έγινε 4 ώρες και 38 λεπτά πριν, στις 17:00 UTC
Η πρόγνωση ισχύει από τις 23 στις 18 UTC έως τις 24 στις 24 UTC
Άνεμος 12 kt από Ν με ριπές μέχρι 22 kt
Ορατότητα: 6000 μ
Προσωρινά
από 23 στις 20 UTC έως τις 24 στις 03 UTC
Ορατότητα 10 χλμ και άνω
Διάσπαρτα νέφη σε ύψος 4000 πόδια
Διάσπαρτα νέφη σε ύψος 14000 πόδια

TAF: HSSS 231700Z 2318/2424 19012G22KT 6000 NSC TEMPO 2320/2403 9999 SCT040 SCT140

Μετεωρολογικές αναφορές και προγνώσεις για περισσότερα από 4000 αεροδρόμια (δελτία METAR και TAF).

Οι διαθέσιμοι σταθμοί απεικονίζονται στο χάρτη με κίτρινες και κόκκινες κουκκίδες.

Μετακινήστε το ποντίκι πάνω από τις κουκκίδες για να δείτε το όνομα του σταθμού.

Στη συνέχεια, κάντε κλικ για να δείτε τις μετεωρολογικές αναφορές και τις προγνώσεις καιρού.

Για να αλλάξετε το χάρτη: κάντε κλικ στα πράσινα κουμπιά με τον μαύρο σταυρό για να ζουμάρετε, στο πράσινο κουμπί με την παύλα για να αφαιρέσετε το ζουμ ή στα πράσινα βέλη για να αντιπαραβάλλετε χάρτες.


METAR-TAF: